Time;durP1;ratioP1;P1;durP2;ratioP2;P2;SDS_P1;SDS_P2;PMS_P1;PMS_P2;Temp;Humidity;BMP_temperature;BMP_pressure;BME280_temperature;BME280_humidity;BME280_pressure;Samples;Min_cycle;Max_cycle;Signal;HPM_P1;HPM_P2
2023/12/08 00:00:39;;;;;;;4.35;1.90;;;;;;;;;;5109380;28;20512;-79
2023/12/08 00:03:10;;;;;;;7.93;2.00;;;;;;;;;;5073866;28;20051;-80
2023/12/08 00:05:40;;;;;;;9.30;2.00;;;;;;;;;;5109270;28;20051;-78
2023/12/08 00:08:10;;;;;;;6.95;2.67;;;;;;;;;;5073787;28;20055;-78
2023/12/08 00:10:40;;;;;;;9.45;2.72;;;;;;;;;;5090716;28;20059;-79
2023/12/08 00:13:11;;;;;;;6.50;2.17;;;;;;;;;;5102516;28;20193;-79
2023/12/08 00:15:43;;;;;;;;;;;;;;;;;;5077157;28;20498;-79
2023/12/08 00:18:14;;;;;;;5.65;2.10;;;;;;;;;;5076849;28;19929;-79
2023/12/08 00:20:44;;;;;;;6.05;2.15;;;;;;;;;;5095626;28;20482;-80
2023/12/08 00:23:15;;;;;;;4.43;2.28;;;;;;;;;;5090290;28;20044;-79
2023/12/08 00:25:46;;;;;;;6.32;2.85;;;;;;;;;;5074368;28;20044;-79
2023/12/08 00:28:15;;;;;;;4.25;2.33;;;;;;;;;;5056283;28;20052;-79
2023/12/08 00:30:45;;;;;;;9.32;3.15;;;;;;;;;;5055771;28;20491;-79
2023/12/08 00:33:16;;;;;;;5.05;2.38;;;;;;;;;;5074024;28;20713;-80
2023/12/08 00:35:48;;;;;;;4.57;2.95;;;;;;;;;;5056627;28;20032;-78
2023/12/08 00:38:21;;;;;;;6.78;2.90;;;;;;;;;;5073853;28;20044;-80
2023/12/08 00:40:52;;;;;;;7.75;2.72;;;;;;;;;;5054848;28;20048;-78
2023/12/08 00:43:22;;;;;;;4.40;2.40;;;;;;;;;;5082616;28;20048;-80
2023/12/08 00:45:52;;;;;;;8.32;2.60;;;;;;;;;;5076339;28;20063;-80
2023/12/08 00:48:22;;;;;;;11.10;2.70;;;;;;;;;;5094381;28;20508;-80
2023/12/08 00:50:52;;;;;;;6.25;2.00;;;;;;;;;;5093424;28;20410;-80
2023/12/08 00:53:22;;;;;;;4.80;2.03;;;;;;;;;;5092893;28;20418;-79
2023/12/08 00:55:52;;;;;;;5.72;3.15;;;;;;;;;;5092938;28;20048;-80
2023/12/08 00:58:22;;;;;;;9.23;2.78;;;;;;;;;;5076294;28;20055;-81
2023/12/08 01:00:52;;;;;;;5.35;2.88;;;;;;;;;;5093442;28;20047;-79
2023/12/08 01:03:22;;;;;;;6.40;2.65;;;;;;;;;;5093961;28;20066;-79
2023/12/08 01:05:52;;;;;;;11.90;3.28;;;;;;;;;;5093516;28;20088;-79
2023/12/08 01:08:22;;;;;;;9.63;3.83;;;;;;;;;;5075269;28;20048;-79
2023/12/08 01:10:55;;;;;;;5.90;3.13;;;;;;;;;;5093369;28;20047;-80
2023/12/08 01:13:26;;;;;;;10.18;3.13;;;;;;;;;;5093869;28;20059;-81
2023/12/08 01:15:56;;;;;;;8.13;3.15;;;;;;;;;;5075017;28;20592;-80
2023/12/08 01:18:26;;;;;;;6.30;3.03;;;;;;;;;;5093366;28;20040;-80
2023/12/08 01:20:56;;;;;;;12.40;2.58;;;;;;;;;;5093407;28;20394;-80
2023/12/08 01:23:26;;;;;;;9.38;3.60;;;;;;;;;;5093179;28;20059;-80
2023/12/08 01:25:56;;;;;;;5.13;2.20;;;;;;;;;;5091983;28;20433;-79
2023/12/08 01:28:27;;;;;;;7.55;3.00;;;;;;;;;;5093515;28;20044;-79
2023/12/08 01:30:57;;;;;;;8.90;3.30;;;;;;;;;;5075015;28;20047;-79
2023/12/08 01:33:27;;;;;;;14.05;3.17;;;;;;;;;;5076734;28;20055;-81
2023/12/08 01:36:00;;;;;;;6.78;3.17;;;;;;;;;;5072887;28;20044;-79
2023/12/08 01:38:51;;;;;;;6.10;3.25;;;;;;;;;;5058339;28;20044;-78
2023/12/08 01:41:22;;;;;;;8.65;3.40;;;;;;;;;;5055072;28;20055;-79
2023/12/08 01:43:51;;;;;;;10.18;3.00;;;;;;;;;;5054949;28;20055;-79
2023/12/08 01:46:22;;;;;;;7.07;3.15;;;;;;;;;;5072877;28;20044;-79
2023/12/08 01:48:51;;;;;;;7.88;3.60;;;;;;;;;;5072583;28;20040;-79
2023/12/08 01:51:22;;;;;;;11.05;4.07;;;;;;;;;;5072642;28;20052;-80
2023/12/08 01:53:53;;;;;;;5.22;2.42;;;;;;;;;;5072270;28;20417;-79
2023/12/08 01:56:23;;;;;;;5.80;3.08;;;;;;;;;;5072559;28;20056;-80
2023/12/08 01:58:54;;;;;;;16.17;3.65;;;;;;;;;;5072381;28;20051;-79
2023/12/08 02:01:25;;;;;;;13.68;3.33;;;;;;;;;;5055099;28;20061;-79
2023/12/08 02:03:57;;;;;;;6.30;3.40;;;;;;;;;;5072040;28;20064;-79
2023/12/08 02:06:29;;;;;;;7.95;3.45;;;;;;;;;;5072263;28;20502;-79
2023/12/08 02:08:59;;;;;;;9.48;3.38;;;;;;;;;;5053730;28;20541;-79
2023/12/08 02:11:29;;;;;;;7.70;3.50;;;;;;;;;;5072424;28;20052;-79
2023/12/08 02:14:00;;;;;;;6.68;2.92;;;;;;;;;;5071854;28;20052;-80
2023/12/08 02:16:47;;;;;;;7.13;2.90;;;;;;;;;;5072358;28;20044;-79
2023/12/08 02:19:18;;;;;;;6.18;3.20;;;;;;;;;;5069930;28;20036;-79
2023/12/08 02:21:48;;;;;;;5.47;3.10;;;;;;;;;;5070266;28;20048;-80
2023/12/08 02:24:19;;;;;;;6.57;3.60;;;;;;;;;;5071902;28;20048;-80
2023/12/08 02:26:50;;;;;;;10.10;3.30;;;;;;;;;;5072028;28;20044;-80
2023/12/08 02:29:21;;;;;;;5.40;3.03;;;;;;;;;;5071624;28;20051;-80
2023/12/08 02:32:07;;;;;;;10.57;3.25;;;;;;;;;;5052693;28;20060;-80
2023/12/08 02:34:40;;;;;;;5.82;3.45;;;;;;;;;;5053681;28;20052;-79
2023/12/08 02:37:14;;;;;;;13.85;3.40;;;;;;;;;;5071492;28;20048;-79
2023/12/08 02:39:48;;;;;;;9.82;3.15;;;;;;;;;;5071357;28;20051;-79
2023/12/08 02:42:19;;;;;;;7.47;3.40;;;;;;;;;;5071436;28;20049;-79
2023/12/08 02:44:49;;;;;;;19.05;4.05;;;;;;;;;;5091573;28;20040;-79
2023/12/08 02:47:20;;;;;;;7.85;3.60;;;;;;;;;;5091312;28;20051;-79
2023/12/08 02:49:51;;;;;;;8.93;3.28;;;;;;;;;;5091573;28;20036;-79
2023/12/08 02:52:21;;;;;;;17.52;3.83;;;;;;;;;;5091709;28;20052;-79
2023/12/08 02:54:52;;;;;;;10.40;3.30;;;;;;;;;;5073387;28;20048;-80
2023/12/08 02:57:22;;;;;;;13.13;3.88;;;;;;;;;;5091920;28;20048;-80
2023/12/08 02:59:53;;;;;;;9.95;4.80;;;;;;;;;;5091670;28;20051;-79
2023/12/08 03:02:23;;;;;;;11.48;3.97;;;;;;;;;;5073921;28;20052;-79
2023/12/08 03:04:53;;;;;;;7.25;4.15;;;;;;;;;;5091411;28;20052;-79
2023/12/08 03:07:23;;;;;;;9.95;4.55;;;;;;;;;;5092023;28;20044;-79
2023/12/08 03:09:54;;;;;;;8.65;3.85;;;;;;;;;;5091540;28;20048;-79
2023/12/08 03:12:24;;;;;;;14.77;3.88;;;;;;;;;;5090721;28;20051;-79
2023/12/08 03:14:54;;;;;;;9.80;3.13;;;;;;;;;;5071164;28;20405;-79
2023/12/08 03:17:24;;;;;;;11.85;4.18;;;;;;;;;;5071364;28;20060;-80
2023/12/08 03:19:55;;;;;;;9.23;3.75;;;;;;;;;;5074563;28;20047;-79
2023/12/08 03:22:25;;;;;;;9.60;3.83;;;;;;;;;;5091807;28;20047;-80
2023/12/08 03:24:56;;;;;;;8.50;3.80;;;;;;;;;;5091419;28;20048;-80
2023/12/08 03:27:26;;;;;;;9.77;3.08;;;;;;;;;;5072650;28;20421;-79
2023/12/08 03:29:56;;;;;;;9.77;4.00;;;;;;;;;;5091257;28;20043;-79
2023/12/08 03:32:27;;;;;;;7.93;3.70;;;;;;;;;;5091499;28;20405;-78
2023/12/08 03:34:58;;;;;;;11.43;4.28;;;;;;;;;;5091414;28;20048;-79
2023/12/08 03:37:29;;;;;;;;;;;;;;;;;;5092143;28;20044;-79
2023/12/08 03:39:58;;;;;;;9.82;4.47;;;;;;;;;;5073488;28;19927;-78
2023/12/08 03:42:34;;;;;;;10.60;5.22;;;;;;;;;;5089526;28;20040;-79
2023/12/08 03:45:05;;;;;;;11.55;4.43;;;;;;;;;;5071168;28;20048;-78
2023/12/08 03:47:35;;;;;;;13.95;4.75;;;;;;;;;;5081553;28;20493;-79
2023/12/08 03:50:06;;;;;;;12.45;4.20;;;;;;;;;;5094299;28;20541;-79
2023/12/08 03:52:36;;;;;;;13.35;4.18;;;;;;;;;;5076511;28;20046;-79
2023/12/08 03:55:06;;;;;;;15.45;4.80;;;;;;;;;;5094850;28;20058;-78
2023/12/08 03:57:36;;;;;;;12.85;4.65;;;;;;;;;;5095049;28;20051;-78
2023/12/08 04:00:07;;;;;;;10.65;4.75;;;;;;;;;;5094866;28;20048;-78
2023/12/08 04:02:38;;;;;;;13.25;4.70;;;;;;;;;;5094911;28;20055;-78
2023/12/08 04:05:08;;;;;;;15.60;5.35;;;;;;;;;;5075890;28;20071;-79
2023/12/08 04:07:38;;;;;;;8.10;4.53;;;;;;;;;;5095231;28;20044;-78
2023/12/08 04:10:08;;;;;;;9.07;3.97;;;;;;;;;;5094856;28;20044;-79
2023/12/08 04:12:38;;;;;;;7.63;3.90;;;;;;;;;;5072704;28;20052;-79
2023/12/08 04:15:09;;;;;;;10.07;4.32;;;;;;;;;;5074192;28;20115;-78
2023/12/08 04:17:39;;;;;;;7.68;4.63;;;;;;;;;;5055933;28;20055;-79
2023/12/08 04:20:10;;;;;;;7.68;4.10;;;;;;;;;;5074295;28;20044;-80
2023/12/08 04:22:40;;;;;;;16.70;4.20;;;;;;;;;;5056951;28;20040;-80
2023/12/08 04:25:12;;;;;;;8.55;3.40;;;;;;;;;;5074118;28;20410;-80
2023/12/08 04:27:42;;;;;;;8.27;3.85;;;;;;;;;;5074565;28;20521;-80
2023/12/08 04:30:13;;;;;;;14.00;4.40;;;;;;;;;;5073720;28;20047;-80
2023/12/08 04:32:43;;;;;;;12.55;5.00;;;;;;;;;;5074594;28;20045;-80
2023/12/08 04:35:14;;;;;;;18.85;4.78;;;;;;;;;;5084458;28;20036;-80
2023/12/08 04:37:44;;;;;;;13.10;4.60;;;;;;;;;;5094897;28;20052;-79
2023/12/08 04:40:15;;;;;;;28.10;5.10;;;;;;;;;;5090446;28;20498;-82
2023/12/08 04:42:45;;;;;;;12.38;4.85;;;;;;;;;;5056352;28;20055;-80
2023/12/08 04:45:15;;;;;;;12.27;4.70;;;;;;;;;;5057337;28;20056;-79
2023/12/08 04:47:45;;;;;;;9.75;4.35;;;;;;;;;;5074650;28;20063;-81
2023/12/08 04:50:16;;;;;;;18.65;5.95;;;;;;;;;;5056306;28;20044;-79
2023/12/08 04:52:46;;;;;;;13.05;4.65;;;;;;;;;;5074924;28;20051;-79
2023/12/08 04:55:17;;;;;;;23.60;4.95;;;;;;;;;;5074781;28;20040;-80
2023/12/08 04:57:48;;;;;;;14.80;4.47;;;;;;;;;;5056271;28;20552;-80
2023/12/08 05:00:18;;;;;;;10.30;4.38;;;;;;;;;;5057229;28;20048;-79
2023/12/08 05:02:49;;;;;;;9.88;4.28;;;;;;;;;;5074497;28;20071;-79
2023/12/08 05:05:20;;;;;;;13.35;4.57;;;;;;;;;;5057185;28;20071;-80
2023/12/08 05:07:50;;;;;;;12.90;4.63;;;;;;;;;;5039521;28;20048;-80
2023/12/08 05:10:20;;;;;;;10.80;4.32;;;;;;;;;;5074604;28;20052;-80
2023/12/08 05:12:50;;;;;;;16.75;4.50;;;;;;;;;;5074350;28;20051;-80
2023/12/08 05:15:21;;;;;;;11.40;4.15;;;;;;;;;;5074607;28;20048;-78
2023/12/08 05:17:51;;;;;;;8.32;4.10;;;;;;;;;;5055838;28;20049;-80
2023/12/08 05:20:23;;;;;;;10.73;4.72;;;;;;;;;;5056013;28;20048;-80
2023/12/08 05:22:52;;;;;;;8.38;3.53;;;;;;;;;;5074053;28;20406;-81
2023/12/08 05:25:22;;;;;;;11.60;5.20;;;;;;;;;;5073982;28;20044;-80
2023/12/08 05:27:52;;;;;;;8.65;4.32;;;;;;;;;;5074139;28;20052;-81
2023/12/08 05:30:22;;;;;;;11.30;4.43;;;;;;;;;;5073825;28;20056;-80
2023/12/08 05:32:52;;;;;;;8.50;4.80;;;;;;;;;;5073800;28;20045;-80
2023/12/08 05:35:22;;;;;;;8.52;4.30;;;;;;;;;;5074079;28;20049;-81
2023/12/08 05:37:53;;;;;;;10.45;3.90;;;;;;;;;;5056595;28;20049;-81
2023/12/08 05:40:24;;;;;;;7.40;4.15;;;;;;;;;;5055472;28;20052;-80
2023/12/08 05:42:54;;;;;;;7.25;4.30;;;;;;;;;;5073723;28;20044;-81
2023/12/08 05:45:24;;;;;;;8.40;4.18;;;;;;;;;;5074124;28;20047;-81
2023/12/08 05:47:55;;;;;;;8.10;4.25;;;;;;;;;;5054970;28;20056;-79
2023/12/08 05:50:26;;;;;;;11.23;3.90;;;;;;;;;;5039400;28;20059;-81
2023/12/08 05:52:57;;;;;;;8.50;3.17;;;;;;;;;;5056265;28;20395;-79
2023/12/08 05:55:27;;;;;;;6.57;4.10;;;;;;;;;;5054470;28;20455;-79
2023/12/08 05:57:57;;;;;;;6.35;4.05;;;;;;;;;;5073360;28;20045;-80
2023/12/08 06:00:27;;;;;;;9.23;3.90;;;;;;;;;;5074423;28;20075;-79
2023/12/08 06:02:57;;;;;;;13.02;4.47;;;;;;;;;;5073414;28;20063;-80
2023/12/08 06:05:27;;;;;;;12.75;4.40;;;;;;;;;;5073273;28;20052;-80
2023/12/08 06:07:57;;;;;;;11.13;4.97;;;;;;;;;;5072885;28;20067;-80
2023/12/08 06:10:27;;;;;;;18.23;4.25;;;;;;;;;;5055828;28;20049;-81
2023/12/08 06:12:57;;;;;;;19.27;3.67;;;;;;;;;;5073323;28;20406;-79
2023/12/08 06:15:27;;;;;;;13.57;4.88;;;;;;;;;;5038046;28;20083;-80
2023/12/08 06:17:56;;;;;;;14.63;3.88;;;;;;;;;;5073230;28;20044;-79
2023/12/08 06:20:27;;;;;;;13.23;4.00;;;;;;;;;;5072849;28;20055;-79
2023/12/08 06:22:56;;;;;;;9.73;4.00;;;;;;;;;;5054447;28;20044;-80
2023/12/08 06:25:27;;;;;;;10.50;4.03;;;;;;;;;;5073197;28;20056;-79
2023/12/08 06:27:57;;;;;;;11.57;3.90;;;;;;;;;;5055798;28;20083;-80
2023/12/08 06:30:26;;;;;;;19.50;4.43;;;;;;;;;;5038114;28;20057;-80
2023/12/08 06:32:56;;;;;;;26.13;4.18;;;;;;;;;;5072737;28;20041;-79
2023/12/08 06:35:27;;;;;;;15.40;4.57;;;;;;;;;;5056092;28;20040;-80
2023/12/08 06:37:57;;;;;;;9.50;3.45;;;;;;;;;;5073002;28;20048;-77
2023/12/08 06:40:27;;;;;;;8.55;3.55;;;;;;;;;;5073095;28;20525;-78
2023/12/08 06:42:57;;;;;;;10.07;4.40;;;;;;;;;;5072662;28;20040;-79
2023/12/08 06:45:28;;;;;;;11.02;4.03;;;;;;;;;;5054867;28;20052;-78
2023/12/08 06:47:57;;;;;;;7.25;3.35;;;;;;;;;;5038352;28;20067;-78
2023/12/08 06:50:30;;;;;;;7.10;2.88;;;;;;;;;;5053781;28;20408;-79
2023/12/08 06:53:00;;;;;;;9.18;3.78;;;;;;;;;;5072638;28;20049;-78
2023/12/08 06:55:32;;;;;;;12.40;3.53;;;;;;;;;;5054138;28;20063;-79
2023/12/08 06:58:02;;;;;;;8.68;3.53;;;;;;;;;;5072579;28;20064;-78
2023/12/08 07:00:32;;;;;;;7.35;3.63;;;;;;;;;;5054100;28;20049;-79
2023/12/08 07:03:02;;;;;;;8.50;3.80;;;;;;;;;;5072671;28;20064;-77
2023/12/08 07:05:33;;;;;;;11.90;3.83;;;;;;;;;;5072710;28;20045;-78
2023/12/08 07:08:04;;;;;;;8.63;3.22;;;;;;;;;;5055201;28;20410;-79
2023/12/08 07:10:34;;;;;;;15.05;3.78;;;;;;;;;;5072410;28;20406;-78
2023/12/08 07:13:04;;;;;;;7.65;3.60;;;;;;;;;;5054040;28;20064;-80
2023/12/08 07:15:34;;;;;;;9.20;3.38;;;;;;;;;;5071886;28;20053;-80
2023/12/08 07:18:04;;;;;;;7.20;3.58;;;;;;;;;;5072466;28;20048;-78
2023/12/08 07:20:34;;;;;;;8.48;3.53;;;;;;;;;;5072643;28;20044;-79
2023/12/08 07:23:05;;;;;;;9.63;3.83;;;;;;;;;;5054584;28;20056;-79
2023/12/08 07:25:35;;;;;;;7.97;3.75;;;;;;;;;;5076661;28;20044;-78
2023/12/08 07:28:04;;;;;;;7.63;3.60;;;;;;;;;;5058819;28;20049;-77
2023/12/08 07:30:34;;;;;;;7.60;3.30;;;;;;;;;;5076443;28;20047;-78
2023/12/08 07:33:05;;;;;;;7.57;2.65;;;;;;;;;;5076571;28;20410;-78
2023/12/08 07:35:35;;;;;;;7.07;3.20;;;;;;;;;;5057400;28;20049;-79
2023/12/08 07:38:05;;;;;;;5.03;3.45;;;;;;;;;;5076297;28;20041;-78
2023/12/08 07:40:35;;;;;;;6.68;3.30;;;;;;;;;;5041452;28;20056;-78
2023/12/08 07:43:04;;;;;;;10.63;3.00;;;;;;;;;;5076141;28;20406;-79
2023/12/08 07:45:34;;;;;;;7.10;3.67;;;;;;;;;;5075864;28;20048;-80
2023/12/08 07:48:05;;;;;;;6.07;2.60;;;;;;;;;;5075580;28;20414;-78
2023/12/08 07:50:36;;;;;;;6.18;2.95;;;;;;;;;;5086648;28;20044;-79
2023/12/08 07:53:06;;;;;;;5.78;3.10;;;;;;;;;;5096167;28;20044;-79
2023/12/08 07:55:36;;;;;;;7.05;2.70;;;;;;;;;;5077386;28;20079;-80
2023/12/08 07:58:09;;;;;;;;;;;;;;;;;;5079293;28;20044;-79
2023/12/08 08:00:38;;;;;;;12.35;3.60;;;;;;;;;;5093541;28;19935;-78
2023/12/08 08:03:08;;;;;;;9.05;3.50;;;;;;;;;;5094477;28;20052;-79
2023/12/08 08:05:38;;;;;;;8.45;4.57;;;;;;;;;;5095206;28;20473;-79
2023/12/08 08:08:08;;;;;;;10.07;3.45;;;;;;;;;;5095564;28;20048;-77
2023/12/08 08:10:40;;;;;;;6.93;3.72;;;;;;;;;;5077854;28;20040;-80
2023/12/08 08:13:10;;;;;;;7.82;2.88;;;;;;;;;;5095461;28;20414;-78
2023/12/08 08:15:41;;;;;;;7.55;3.10;;;;;;;;;;5095576;28;20036;-78
2023/12/08 08:18:11;;;;;;;10.18;3.28;;;;;;;;;;5095337;28;20040;-79
2023/12/08 08:20:41;;;;;;;6.30;3.53;;;;;;;;;;5095233;28;20040;-80
2023/12/08 08:23:10;;;;;;;5.82;3.45;;;;;;;;;;5095523;28;20055;-78
2023/12/08 08:25:40;;;;;;;6.07;3.85;;;;;;;;;;5095487;28;20044;-81
2023/12/08 08:28:10;;;;;;;5.93;2.42;;;;;;;;;;5095871;28;20382;-77
2023/12/08 08:30:44;;;;;;;7.53;4.00;;;;;;;;;;5090824;28;20040;-78
2023/12/08 08:33:14;;;;;;;6.78;3.70;;;;;;;;;;5095328;28;20478;-78
2023/12/08 08:35:44;;;;;;;7.97;3.33;;;;;;;;;;5077304;28;20040;-78
2023/12/08 08:38:14;;;;;;;10.20;3.33;;;;;;;;;;5076079;28;20041;-78
2023/12/08 08:40:45;;;;;;;4.82;2.92;;;;;;;;;;5057154;28;20051;-77
2023/12/08 08:43:15;;;;;;;5.32;2.67;;;;;;;;;;5056913;28;20041;-77
2023/12/08 08:45:45;;;;;;;10.93;3.20;;;;;;;;;;5054301;28;20044;-79
2023/12/08 08:48:15;;;;;;;7.10;3.10;;;;;;;;;;5071000;28;20045;-80
2023/12/08 08:50:48;;;;;;;5.85;2.85;;;;;;;;;;5071210;28;20427;-79
2023/12/08 08:53:18;;;;;;;6.53;2.90;;;;;;;;;;5071037;28;20588;-79
2023/12/08 08:55:48;;;;;;;8.75;3.08;;;;;;;;;;5052150;28;20713;-78
2023/12/08 08:58:18;;;;;;;5.53;3.10;;;;;;;;;;5053864;28;20057;-79
2023/12/08 09:00:48;;;;;;;9.55;3.35;;;;;;;;;;5072169;28;20044;-80
2023/12/08 09:03:18;;;;;;;6.32;3.10;;;;;;;;;;5068327;28;20055;-80
2023/12/08 09:05:48;;;;;;;7.30;3.60;;;;;;;;;;5072054;28;20055;-80
2023/12/08 09:08:18;;;;;;;6.15;3.20;;;;;;;;;;5072912;28;20540;-80
2023/12/08 09:10:50;;;;;;;7.18;2.95;;;;;;;;;;5074656;28;20049;-79
2023/12/08 09:13:21;;;;;;;6.80;2.55;;;;;;;;;;5074559;28;20052;-79
2023/12/08 09:15:51;;;;;;;5.68;3.17;;;;;;;;;;5074761;28;20074;-80
2023/12/08 09:18:22;;;;;;;6.75;3.00;;;;;;;;;;5057242;28;20044;-79
2023/12/08 09:20:53;;;;;;;11.52;3.17;;;;;;;;;;5056034;28;20128;-79
2023/12/08 09:23:25;;;;;;;7.22;3.28;;;;;;;;;;5074510;28;20066;-79
2023/12/08 09:25:55;;;;;;;7.13;3.28;;;;;;;;;;5074176;28;20047;-79
2023/12/08 09:28:25;;;;;;;7.22;3.40;;;;;;;;;;5074353;28;20047;-79
2023/12/08 09:30:55;;;;;;;7.90;2.50;;;;;;;;;;5074524;28;20398;-80
2023/12/08 09:33:25;;;;;;;5.63;2.92;;;;;;;;;;5056088;28;20049;-78
2023/12/08 09:35:59;;;;;;;5.10;3.00;;;;;;;;;;5055733;28;20067;-80
2023/12/08 09:38:30;;;;;;;5.43;2.55;;;;;;;;;;5074250;28;20045;-79
2023/12/08 09:41:06;;;;;;;8.48;2.97;;;;;;;;;;5074085;28;20063;-79
2023/12/08 09:44:25;;;;;;;7.35;3.13;;;;;;;;;;5056849;28;20049;-79
2023/12/08 09:46:57;;;;;;;9.90;3.03;;;;;;;;;;5010953;28;20053;-81
2023/12/08 09:49:40;;;;;;;6.05;2.92;;;;;;;;;;4996073;28;20057;-80
2023/12/08 09:52:14;;;;;;;7.22;3.20;;;;;;;;;;5041389;28;20052;-80
2023/12/08 09:54:45;;;;;;;6.10;3.30;;;;;;;;;;5073777;28;20383;-81
2023/12/08 09:57:16;;;;;;;5.18;2.85;;;;;;;;;;5075078;28;20044;-80
2023/12/08 09:59:48;;;;;;;5.57;2.33;;;;;;;;;;5080493;28;20402;-80
2023/12/08 10:02:18;;;;;;;5.40;3.33;;;;;;;;;;5072902;28;20068;-80
2023/12/08 10:04:48;;;;;;;5.93;3.13;;;;;;;;;;5072640;28;20517;-80
2023/12/08 10:07:21;;;;;;;7.18;3.28;;;;;;;;;;5054451;28;20052;-80
2023/12/08 10:09:53;;;;;;;6.50;2.92;;;;;;;;;;5072834;28;20048;-80
2023/12/08 10:12:25;;;;;;;5.55;3.20;;;;;;;;;;5072666;28;20071;-80
2023/12/08 10:14:58;;;;;;;6.53;2.55;;;;;;;;;;5073042;28;20399;-81
2023/12/08 10:17:29;;;;;;;10.80;3.60;;;;;;;;;;5072599;28;20044;-80
2023/12/08 10:20:12;;;;;;;9.93;3.10;;;;;;;;;;5053928;28;20056;-81
2023/12/08 10:22:47;;;;;;;6.80;2.97;;;;;;;;;;5054227;28;20071;-80
2023/12/08 10:25:20;;;;;;;6.78;3.15;;;;;;;;;;5072757;28;20059;-80
2023/12/08 10:27:53;;;;;;;7.88;2.80;;;;;;;;;;5072389;28;20059;-80
2023/12/08 10:30:26;;;;;;;8.02;3.10;;;;;;;;;;5054383;28;20071;-80
2023/12/08 10:32:59;;;;;;;9.23;3.35;;;;;;;;;;5072889;28;20048;-80
2023/12/08 10:35:30;;;;;;;9.48;3.22;;;;;;;;;;5072736;28;20044;-80
2023/12/08 10:38:02;;;;;;;7.70;3.10;;;;;;;;;;5072577;28;20071;-81
2023/12/08 10:40:32;;;;;;;8.80;3.20;;;;;;;;;;5055329;28;20044;-81
2023/12/08 10:43:05;;;;;;;6.50;2.58;;;;;;;;;;5072120;28;20410;-81
2023/12/08 10:45:35;;;;;;;6.53;2.60;;;;;;;;;;5072513;28;20376;-80
2023/12/08 10:48:06;;;;;;;5.80;3.17;;;;;;;;;;5072446;28;20044;-80
2023/12/08 10:50:38;;;;;;;8.55;2.50;;;;;;;;;;5054274;28;20502;-81
2023/12/08 10:53:10;;;;;;;8.82;3.10;;;;;;;;;;5072239;28;20055;-82
2023/12/08 10:55:40;;;;;;;8.32;3.00;;;;;;;;;;5053703;28;20048;-80
2023/12/08 10:58:15;;;;;;;6.93;2.78;;;;;;;;;;5072023;28;20044;-80
2023/12/08 11:00:45;;;;;;;8.98;3.10;;;;;;;;;;5072571;28;20059;-81
2023/12/08 11:03:19;;;;;;;6.40;2.80;;;;;;;;;;5052879;28;20045;-80
2023/12/08 11:06:08;;;;;;;9.07;2.75;;;;;;;;;;5050881;28;20049;-80
2023/12/08 11:08:45;;;;;;;2.28;1.40;;;;;;;;;;5053135;28;20595;-80
2023/12/08 11:11:18;;;;;;;6.38;3.58;;;;;;;;;;5054352;28;20044;-81
2023/12/08 11:14:01;;;;;;;8.00;3.78;;;;;;;;;;5034846;28;20045;-80
2023/12/08 11:16:39;;;;;;;5.43;4.00;;;;;;;;;;5052514;28;20064;-82
2023/12/08 11:19:11;;;;;;;3.55;2.70;;;;;;;;;;5052839;28;20056;-81
2023/12/08 11:21:43;;;;;;;3.33;2.03;;;;;;;;;;5034510;28;20059;-81
2023/12/08 11:24:14;;;;;;;2.38;0.40;;;;;;;;;;5052583;28;20399;-81
2023/12/08 11:27:12;;;;;;;2.00;0.60;;;;;;;;;;5018051;28;20044;-80
2023/12/08 11:30:08;;;;;;;1.45;0.90;;;;;;;;;;5051338;28;20072;-80
2023/12/08 11:32:50;;;;;;;0.90;0.70;;;;;;;;;;5034091;28;20048;-81
2023/12/08 11:35:21;;;;;;;1.50;0.90;;;;;;;;;;5074450;28;20044;-81
2023/12/08 11:37:51;;;;;;;1.42;0.50;;;;;;;;;;5058294;28;20395;-81
2023/12/08 11:40:22;;;;;;;3.65;1.00;;;;;;;;;;5050823;28;20135;-81
2023/12/08 11:42:55;;;;;;;2.38;1.00;;;;;;;;;;5042145;28;20539;-82
2023/12/08 11:45:26;;;;;;;2.70;2.00;;;;;;;;;;5053762;28;20045;-81
2023/12/08 11:47:58;;;;;;;4.32;1.00;;;;;;;;;;5051459;28;20052;-82
2023/12/08 11:50:31;;;;;;;1.00;0.70;;;;;;;;;;5051115;28;20037;-82
2023/12/08 11:53:05;;;;;;;1.65;0.90;;;;;;;;;;5050326;28;20055;-81
2023/12/08 11:55:36;;;;;;;2.83;0.82;;;;;;;;;;5033746;28;20414;-83
2023/12/08 11:58:09;;;;;;;2.00;0.80;;;;;;;;;;5051124;28;20051;-82
2023/12/08 12:00:41;;;;;;;1.65;1.08;;;;;;;;;;5051176;28;20041;-82
2023/12/08 12:03:13;;;;;;;2.38;0.85;;;;;;;;;;5052580;28;20048;-81
2023/12/08 12:05:43;;;;;;;2.65;1.08;;;;;;;;;;5053649;28;20055;-81
2023/12/08 12:08:14;;;;;;;3.10;0.95;;;;;;;;;;5070855;28;20102;-81
2023/12/08 12:10:48;;;;;;;1.40;1.00;;;;;;;;;;5074828;28;20045;-82
2023/12/08 12:13:23;;;;;;;4.00;1.60;;;;;;;;;;5074880;28;20032;-82
2023/12/08 12:15:55;;;;;;;1.73;1.08;;;;;;;;;;5074816;28;20040;-80
2023/12/08 12:18:28;;;;;;;2.15;0.85;;;;;;;;;;5074732;28;20553;-82
2023/12/08 12:21:01;;;;;;;1.90;0.82;;;;;;;;;;5055694;28;20076;-82
2023/12/08 12:23:32;;;;;;;3.63;1.30;;;;;;;;;;5074459;28;20103;-81
2023/12/08 12:26:09;;;;;;;2.45;0.85;;;;;;;;;;5074614;28;20048;-82
2023/12/08 12:28:42;;;;;;;1.23;1.13;;;;;;;;;;5090174;28;20044;-80
2023/12/08 12:31:15;;;;;;;1.35;0.80;;;;;;;;;;5095610;28;20478;-81
2023/12/08 12:33:46;;;;;;;4.38;0.77;;;;;;;;;;5095660;28;20048;-81
2023/12/08 12:36:18;;;;;;;4.35;0.95;;;;;;;;;;5061429;28;20048;-81
2023/12/08 12:38:49;;;;;;;0.95;0.60;;;;;;;;;;5095677;28;20051;-81
2023/12/08 12:41:25;;;;;;;2.47;0.70;;;;;;;;;;5095718;28;20063;-81
2023/12/08 12:44:01;;;;;;;2.17;1.38;;;;;;;;;;5095408;28;20067;-81
2023/12/08 12:46:32;;;;;;;3.30;1.83;;;;;;;;;;5095569;28;20048;-80
2023/12/08 12:49:03;;;;;;;1.67;1.00;;;;;;;;;;5076455;28;20102;-81
2023/12/08 12:51:38;;;;;;;10.18;6.05;;;;;;;;;;5078012;28;20044;-80
2023/12/08 12:54:09;;;;;;;5.70;3.47;;;;;;;;;;5095259;28;20394;-80
2023/12/08 12:56:50;;;;;;;4.70;1.70;;;;;;;;;;5076334;28;20048;-80
2023/12/08 12:59:21;;;;;;;1.95;0.70;;;;;;;;;;5095690;28;20386;-80
2023/12/08 13:01:51;;;;;;;2.05;1.02;;;;;;;;;;5086553;28;20062;-80
2023/12/08 13:04:28;;;;;;;1.90;0.90;;;;;;;;;;5057390;28;20056;-81
2023/12/08 13:06:59;;;;;;;2.47;1.00;;;;;;;;;;5074951;28;20044;-81
2023/12/08 13:09:30;;;;;;;0.80;0.70;;;;;;;;;;5056383;28;20451;-80
2023/12/08 13:12:01;;;;;;;7.05;3.22;;;;;;;;;;5074775;28;20166;-80
2023/12/08 13:14:31;;;;;;;0.75;0.63;;;;;;;;;;5074957;28;20052;-81
2023/12/08 13:17:04;;;;;;;2.25;0.77;;;;;;;;;;5074496;28;20052;-81
2023/12/08 13:19:34;;;;;;;0.80;0.60;;;;;;;;;;5057118;28;20372;-81
2023/12/08 13:22:05;;;;;;;3.95;3.17;;;;;;;;;;5074790;28;20499;-81
2023/12/08 13:24:36;;;;;;;0.75;0.73;;;;;;;;;;5074618;28;20063;-80
2023/12/08 13:27:06;;;;;;;1.80;0.93;;;;;;;;;;5074401;28;20059;-80
2023/12/08 13:29:36;;;;;;;1.48;1.30;;;;;;;;;;5074744;28;20044;-80
2023/12/08 13:32:07;;;;;;;1.08;0.80;;;;;;;;;;5074286;28;20048;-80
2023/12/08 13:34:37;;;;;;;1.88;1.10;;;;;;;;;;5074407;28;20044;-80
2023/12/08 13:37:07;;;;;;;2.53;1.20;;;;;;;;;;5073976;28;20041;-80
2023/12/08 13:39:37;;;;;;;1.15;0.70;;;;;;;;;;5074593;28;20055;-81
2023/12/08 13:42:07;;;;;;;1.52;1.35;;;;;;;;;;5055490;28;20045;-80
2023/12/08 13:44:37;;;;;;;1.00;0.90;;;;;;;;;;5056930;28;20534;-81
2023/12/08 13:47:11;;;;;;;3.47;0.82;;;;;;;;;;5073960;28;20040;-81
2023/12/08 13:49:47;;;;;;;1.13;0.70;;;;;;;;;;5073990;28;20041;-82
2023/12/08 13:52:17;;;;;;;2.08;1.98;;;;;;;;;;5074675;28;20040;-81
2023/12/08 13:54:47;;;;;;;2.72;1.20;;;;;;;;;;5073686;28;20043;-81
2023/12/08 13:57:18;;;;;;;1.58;0.80;;;;;;;;;;5074337;28;20063;-81
2023/12/08 13:59:48;;;;;;;1.88;1.17;;;;;;;;;;5056354;28;20071;-80
2023/12/08 14:02:18;;;;;;;1.20;1.10;;;;;;;;;;5045256;28;20052;-81
2023/12/08 14:04:48;;;;;;;1.42;0.90;;;;;;;;;;5053636;28;20407;-80
2023/12/08 14:07:19;;;;;;;3.92;0.80;;;;;;;;;;5036386;28;20045;-81
2023/12/08 14:09:50;;;;;;;1.38;1.00;;;;;;;;;;5053682;28;20056;-80
2023/12/08 14:12:20;;;;;;;1.38;1.02;;;;;;;;;;5053961;28;20049;-81
2023/12/08 14:14:50;;;;;;;2.63;1.17;;;;;;;;;;5053872;28;20037;-81
2023/12/08 14:17:20;;;;;;;1.27;0.98;;;;;;;;;;5053629;28;20045;-83
2023/12/08 14:19:50;;;;;;;2.70;0.80;;;;;;;;;;5053957;28;20049;-83
2023/12/08 14:22:22;;;;;;;2.03;0.75;;;;;;;;;;5060637;28;20045;-81
2023/12/08 14:24:54;;;;;;;2.28;0.88;;;;;;;;;;5072181;28;20041;-80
2023/12/08 14:27:24;;;;;;;1.27;0.90;;;;;;;;;;5053274;28;20037;-82
2023/12/08 14:29:55;;;;;;;0.70;0.70;;;;;;;;;;5053604;28;20048;-82
2023/12/08 14:32:25;;;;;;;1.30;1.00;;;;;;;;;;5065727;28;20050;-82
2023/12/08 14:34:56;;;;;;;3.05;0.95;;;;;;;;;;5071545;28;20044;-81
2023/12/08 14:37:38;;;;;;;3.78;1.02;;;;;;;;;;5055399;28;20040;-83
2023/12/08 14:40:10;;;;;;;5.45;1.05;;;;;;;;;;5051052;28;20053;-82
2023/12/08 14:42:43;;;;;;;1.63;0.70;;;;;;;;;;5072329;28;20410;-81
2023/12/08 14:45:13;;;;;;;1.35;0.90;;;;;;;;;;5054116;28;20079;-82
2023/12/08 14:47:45;;;;;;;0.43;0.40;;;;;;;;;;5054032;28;20396;-82
2023/12/08 14:50:15;;;;;;;0.80;0.43;;;;;;;;;;5072271;28;20350;-82
2023/12/08 14:52:45;;;;;;;2.05;1.00;;;;;;;;;;5055019;28;20051;-85
2023/12/08 14:55:17;;;;;;;1.10;0.73;;;;;;;;;;5071960;28;20052;-83
2023/12/08 14:57:48;;;;;;;1.20;0.70;;;;;;;;;;5073090;28;20059;-83
2023/12/08 15:00:19;;;;;;;0.85;0.68;;;;;;;;;;5053639;28;20048;-84
2023/12/08 15:02:50;;;;;;;0.80;0.70;;;;;;;;;;5088480;28;20520;-84
2023/12/08 15:05:20;;;;;;;1.85;1.10;;;;;;;;;;5092125;28;20032;-83